Time;durP1;ratioP1;P1;durP2;ratioP2;P2;SDS_P1;SDS_P2;PMS_P1;PMS_P2;Temp;Humidity;BMP_temperature;BMP_pressure;BME280_temperature;BME280_humidity;BME280_pressure;Samples;Min_cycle;Max_cycle;Signal;HPM_P1;HPM_P2
2023/03/20 00:04:52;;;;;;;2.35;1.10;;;;;;;;;;10325047;28;20233;-77
2023/03/20 00:09:56;;;;;;;1.17;1.10;;;;;;;;;;10321546;28;20390;-78
2023/03/20 00:14:59;;;;;;;1.02;1.02;;;;;;;;;;10307651;28;20248;-78
2023/03/20 00:20:00;;;;;;;1.00;1.00;;;;;;;;;;10320560;28;20240;-78
2023/03/20 00:25:01;;;;;;;1.35;1.27;;;;;;;;;;10307259;28;20315;-77
2023/03/20 00:30:03;;;;;;;1.42;1.33;;;;;;;;;;10311688;28;20218;-78
2023/03/20 00:35:16;;;;;;;1.40;1.35;;;;;;;;;;10313392;28;20258;-78
2023/03/20 00:40:17;;;;;;;1.33;1.05;;;;;;;;;;10320246;28;20276;-77
2023/03/20 00:45:20;;;;;;;1.30;1.23;;;;;;;;;;10308857;28;20231;-78
2023/03/20 00:50:22;;;;;;;1.15;1.15;;;;;;;;;;10313195;28;20576;-79
2023/03/20 00:55:26;;;;;;;1.13;1.13;;;;;;;;;;10307484;28;20331;-78
2023/03/20 01:00:34;;;;;;;1.10;1.10;;;;;;;;;;10302711;28;21307;-78
2023/03/20 01:05:35;;;;;;;0.98;0.98;;;;;;;;;;10299372;28;20232;-75
2023/03/20 01:10:36;;;;;;;2.10;1.30;;;;;;;;;;10306251;28;20227;-77
2023/03/20 01:15:37;;;;;;;1.58;1.58;;;;;;;;;;10328779;28;20255;-78
2023/03/20 01:20:39;;;;;;;1.77;1.67;;;;;;;;;;10300538;28;20230;-75
2023/03/20 01:25:40;;;;;;;4.05;2.42;;;;;;;;;;10305739;28;20212;-79
2023/03/20 01:30:41;;;;;;;2.35;2.25;;;;;;;;;;10323114;28;20237;-79
2023/03/20 01:35:42;;;;;;;2.60;2.50;;;;;;;;;;10311443;28;20228;-79
2023/03/20 01:41:02;;;;;;;2.10;2.00;;;;;;;;;;10308352;28;20809;-78
2023/03/20 01:46:16;;;;;;;2.63;2.08;;;;;;;;;;10296759;28;20253;-80
2023/03/20 01:51:18;;;;;;;3.63;2.03;;;;;;;;;;10307971;28;20227;-78
2023/03/20 01:56:19;;;;;;;4.72;2.28;;;;;;;;;;10308101;28;20722;-78
2023/03/20 02:01:24;;;;;;;3.83;1.88;;;;;;;;;;10308673;28;20231;-78
2023/03/20 02:06:26;;;;;;;2.10;1.95;;;;;;;;;;10300455;28;20839;-77
2023/03/20 02:11:41;;;;;;;2.03;1.92;;;;;;;;;;10311392;28;20229;-79
2023/03/20 02:16:42;;;;;;;4.30;2.00;;;;;;;;;;10306077;28;20224;-77
2023/03/20 02:22:09;;;;;;;2.47;2.35;;;;;;;;;;10318496;28;20225;-78
2023/03/20 02:27:32;;;;;;;2.65;2.47;;;;;;;;;;10314520;28;20224;-78
2023/03/20 02:32:49;;;;;;;2.85;2.65;;;;;;;;;;10303984;28;20243;-78
2023/03/20 02:38:02;;;;;;;2.65;2.50;;;;;;;;;;10329420;28;20334;-78
2023/03/20 02:43:13;;;;;;;3.63;2.72;;;;;;;;;;10317836;28;20228;-77
2023/03/20 02:48:29;;;;;;;4.88;2.53;;;;;;;;;;10312130;28;20701;-77
2023/03/20 02:53:52;;;;;;;3.60;3.35;;;;;;;;;;10312566;28;22103;-78
2023/03/20 02:59:02;;;;;;;2.88;2.35;;;;;;;;;;10309994;28;20211;-78
2023/03/20 03:04:06;;;;;;;3.47;3.17;;;;;;;;;;10318905;28;20227;-78
2023/03/20 03:09:19;;;;;;;5.00;3.53;;;;;;;;;;10328348;28;20227;-77
2023/03/20 03:14:32;;;;;;;4.40;3.72;;;;;;;;;;10315459;28;20236;-79
2023/03/20 03:19:34;;;;;;;3.75;3.40;;;;;;;;;;10323794;28;21126;-78
2023/03/20 03:24:37;;;;;;;3.25;3.05;;;;;;;;;;10313231;28;20229;-78
2023/03/20 03:29:39;;;;;;;6.13;5.22;;;;;;;;;;10331213;28;20216;-78
2023/03/20 03:34:40;;;;;;;5.75;5.10;;;;;;;;;;10315450;28;20223;-78
2023/03/20 03:39:48;;;;;;;7.38;5.32;;;;;;;;;;10292961;28;20216;-78
2023/03/20 03:45:09;;;;;;;5.82;5.22;;;;;;;;;;10318571;28;20890;-77
2023/03/20 03:50:30;;;;;;;10.80;6.60;;;;;;;;;;10315938;28;20219;-78
2023/03/20 03:55:36;;;;;;;15.88;9.02;;;;;;;;;;10310706;28;20234;-78
2023/03/20 04:00:44;;;;;;;18.50;11.55;;;;;;;;;;10310203;28;20223;-78
2023/03/20 04:05:45;;;;;;;27.38;12.90;;;;;;;;;;10324812;28;20582;-78
2023/03/20 04:10:46;;;;;;;24.92;13.77;;;;;;;;;;10310440;28;20980;-78
2023/03/20 04:15:48;;;;;;;27.70;15.25;;;;;;;;;;10298880;28;20227;-78
2023/03/20 04:20:50;;;;;;;30.25;16.60;;;;;;;;;;10309848;28;20220;-78
2023/03/20 04:25:52;;;;;;;28.08;15.48;;;;;;;;;;10323891;28;20219;-78
2023/03/20 04:30:53;;;;;;;25.55;12.63;;;;;;;;;;10290571;28;20224;-76
2023/03/20 04:36:08;;;;;;;23.23;12.30;;;;;;;;;;10317190;28;20748;-79
2023/03/20 04:41:09;;;;;;;20.98;11.70;;;;;;;;;;10309335;28;20636;-79
2023/03/20 04:46:11;;;;;;;18.95;10.75;;;;;;;;;;10294090;28;20223;-79
2023/03/20 04:51:12;;;;;;;24.70;11.15;;;;;;;;;;10314883;28;20228;-78
2023/03/20 04:56:24;;;;;;;18.95;9.52;;;;;;;;;;10314014;28;20231;-79
2023/03/20 05:01:28;;;;;;;20.42;9.60;;;;;;;;;;10320515;28;20235;-78
2023/03/20 05:06:30;;;;;;;17.50;10.40;;;;;;;;;;10290895;28;20228;-79
2023/03/20 05:11:32;;;;;;;22.33;10.77;;;;;;;;;;10304396;28;20231;-79
2023/03/20 05:16:45;;;;;;;18.05;9.68;;;;;;;;;;10296702;28;20278;-78
2023/03/20 05:21:52;;;;;;;19.30;10.70;;;;;;;;;;10321304;28;20811;-80
2023/03/20 05:27:13;;;;;;;17.48;10.18;;;;;;;;;;10325132;28;20224;-79
2023/03/20 05:32:25;;;;;;;23.23;10.98;;;;;;;;;;10292869;28;20235;-78
2023/03/20 05:37:41;;;;;;;19.80;10.10;;;;;;;;;;10303533;28;20693;-78
2023/03/20 05:43:02;;;;;;;19.83;9.73;;;;;;;;;;10312896;28;20231;-81
2023/03/20 05:48:06;;;;;;;16.42;8.40;;;;;;;;;;10296370;28;20777;-78
2023/03/20 05:53:16;;;;;;;22.35;9.52;;;;;;;;;;10309970;28;20228;-80
2023/03/20 05:58:41;;;;;;;18.10;8.35;;;;;;;;;;10294582;28;20212;-78
2023/03/20 06:04:00;;;;;;;19.48;9.15;;;;;;;;;;10314643;28;20238;-78
2023/03/20 06:09:20;;;;;;;19.63;9.90;;;;;;;;;;10287161;28;20270;-80
2023/03/20 06:14:22;;;;;;;16.85;9.15;;;;;;;;;;10318543;28;20235;-79
2023/03/20 06:19:30;;;;;;;19.33;9.60;;;;;;;;;;10291640;28;20255;-78
2023/03/20 06:24:32;;;;;;;22.90;11.30;;;;;;;;;;10287045;28;20742;-79
2023/03/20 06:29:34;;;;;;;26.25;11.38;;;;;;;;;;10289802;28;20590;-79
2023/03/20 06:34:46;;;;;;;22.58;10.10;;;;;;;;;;10292678;28;20721;-81
2023/03/20 06:39:47;;;;;;;25.50;10.57;;;;;;;;;;10288219;28;20494;-78
2023/03/20 06:44:49;;;;;;;20.00;9.70;;;;;;;;;;10287179;28;20343;-77
2023/03/20 06:50:10;;;;;;;23.73;10.85;;;;;;;;;;10302236;28;20224;-80
2023/03/20 06:55:11;;;;;;;20.02;10.27;;;;;;;;;;10283719;28;20227;-79
2023/03/20 07:00:13;;;;;;;15.10;9.25;;;;;;;;;;10286279;28;20200;-78
2023/03/20 07:05:14;;;;;;;18.27;8.68;;;;;;;;;;10308243;28;20279;-79
2023/03/20 07:10:16;;;;;;;21.90;8.75;;;;;;;;;;10291325;28;20199;-76
2023/03/20 07:15:23;;;;;;;16.05;9.13;;;;;;;;;;10301274;28;20759;-76
2023/03/20 07:20:25;;;;;;;22.40;10.43;;;;;;;;;;10307531;28;20566;-78
2023/03/20 07:25:26;;;;;;;13.77;8.63;;;;;;;;;;10304881;28;20366;-78
2023/03/20 07:30:28;;;;;;;19.92;9.88;;;;;;;;;;10294895;28;20729;-79
2023/03/20 07:35:29;;;;;;;16.90;8.25;;;;;;;;;;10299202;28;20291;-79
2023/03/20 07:40:31;;;;;;;17.63;8.95;;;;;;;;;;10295606;28;20224;-78
2023/03/20 07:45:41;;;;;;;18.83;9.52;;;;;;;;;;10282204;28;20222;-80
2023/03/20 07:50:43;;;;;;;16.20;9.65;;;;;;;;;;10302059;28;20228;-80
2023/03/20 07:55:44;;;;;;;20.67;8.95;;;;;;;;;;10297493;28;20276;-78
2023/03/20 08:00:45;;;;;;;19.42;8.73;;;;;;;;;;10303898;28;20846;-78
2023/03/20 08:05:46;;;;;;;17.83;8.95;;;;;;;;;;10324249;28;20215;-77
2023/03/20 08:10:47;;;;;;;13.93;8.45;;;;;;;;;;10286070;28;20666;-79
2023/03/20 08:15:48;;;;;;;19.70;9.60;;;;;;;;;;10302839;28;20320;-77
2023/03/20 08:20:49;;;;;;;15.32;8.70;;;;;;;;;;10297720;28;20259;-75
2023/03/20 08:25:53;;;;;;;14.25;7.75;;;;;;;;;;10293737;28;20886;-79
2023/03/20 08:30:54;;;;;;;17.83;9.07;;;;;;;;;;10318421;28;20232;-79
2023/03/20 08:35:56;;;;;;;18.35;8.43;;;;;;;;;;10302258;28;20857;-80
2023/03/20 08:40:57;;;;;;;15.35;7.90;;;;;;;;;;10301530;28;20224;-79
2023/03/20 08:45:58;;;;;;;16.15;8.32;;;;;;;;;;10308270;28;20275;-79
2023/03/20 08:50:59;;;;;;;18.52;8.63;;;;;;;;;;10285378;28;23391;-80
2023/03/20 08:56:00;;;;;;;14.02;8.07;;;;;;;;;;10311045;28;20236;-77
2023/03/20 09:01:05;;;;;;;16.63;8.25;;;;;;;;;;10289048;28;20366;-80
2023/03/20 09:06:07;;;;;;;17.75;8.82;;;;;;;;;;10306480;28;20236;-79
2023/03/20 09:11:08;;;;;;;17.55;8.75;;;;;;;;;;10315027;28;20244;-79
2023/03/20 09:16:09;;;;;;;15.88;8.90;;;;;;;;;;10299086;28;20248;-79
2023/03/20 09:21:10;;;;;;;18.13;9.70;;;;;;;;;;10286584;28;20860;-80
2023/03/20 09:26:11;;;;;;;17.98;9.68;;;;;;;;;;10289828;28;20740;-78
2023/03/20 09:31:12;;;;;;;22.45;10.88;;;;;;;;;;10287722;28;20219;-78
2023/03/20 09:36:14;;;;;;;22.13;10.35;;;;;;;;;;10291977;28;20937;-79
2023/03/20 09:41:20;;;;;;;22.88;9.98;;;;;;;;;;10268493;28;20219;-80
2023/03/20 09:46:30;;;;;;;18.65;8.85;;;;;;;;;;10278082;28;20252;-78
2023/03/20 09:51:36;;;;;;;18.98;9.05;;;;;;;;;;10277737;28;20270;-81
2023/03/20 09:56:37;;;;;;;14.07;8.52;;;;;;;;;;10314438;28;20213;-79
2023/03/20 10:01:59;;;;;;;16.52;8.88;;;;;;;;;;10301110;28;20243;-80
2023/03/20 10:07:03;;;;;;;18.98;10.02;;;;;;;;;;10284570;28;20427;-80
2023/03/20 10:12:22;;;;;;;20.40;8.65;;;;;;;;;;10317495;28;20383;-80
2023/03/20 10:17:23;;;;;;;18.55;9.50;;;;;;;;;;10296667;28;21701;-80
2023/03/20 10:22:43;;;;;;;18.63;8.57;;;;;;;;;;10283395;28;20856;-80
2023/03/20 10:27:55;;;;;;;19.50;9.45;;;;;;;;;;10317748;28;20641;-79
2023/03/20 10:32:57;;;;;;;21.40;8.65;;;;;;;;;;10319442;28;20355;-79
2023/03/20 10:37:58;;;;;;;20.55;9.48;;;;;;;;;;10301164;28;20320;-77
2023/03/20 10:43:01;;;;;;;25.40;10.05;;;;;;;;;;10327341;28;20222;-79
2023/03/20 10:48:06;;;;;;;18.42;9.52;;;;;;;;;;10298802;28;20304;-81
2023/03/20 10:53:07;;;;;;;19.27;9.27;;;;;;;;;;10300018;28;20231;-79
2023/03/20 10:58:14;;;;;;;16.88;8.85;;;;;;;;;;10307362;28;20700;-80
2023/03/20 11:03:29;;;;;;;18.70;9.15;;;;;;;;;;10301819;28;20614;-82
2023/03/20 11:08:34;;;;;;;17.95;9.57;;;;;;;;;;10315821;28;20315;-80
2023/03/20 11:13:36;;;;;;;20.02;9.93;;;;;;;;;;10304565;28;20220;-79
2023/03/20 11:18:37;;;;;;;15.88;9.07;;;;;;;;;;10316015;28;20239;-82
2023/03/20 11:23:38;;;;;;;26.60;9.93;;;;;;;;;;10312346;28;20254;-80
2023/03/20 11:28:54;;;;;;;20.77;10.15;;;;;;;;;;10320588;28;20387;-78
2023/03/20 11:34:14;;;;;;;21.98;10.75;;;;;;;;;;10287992;28;20223;-77
2023/03/20 11:39:21;;;;;;;24.55;10.75;;;;;;;;;;10301581;28;20235;-78
2023/03/20 11:44:27;;;;;;;24.85;13.25;;;;;;;;;;10319280;28;20311;-79
2023/03/20 11:49:28;;;;;;;21.73;12.98;;;;;;;;;;10308606;28;20223;-78
2023/03/20 11:54:30;;;;;;;22.65;12.10;;;;;;;;;;10292422;28;20229;-79
2023/03/20 11:59:35;;;;;;;25.55;12.95;;;;;;;;;;10316303;28;20217;-79
2023/03/20 12:04:41;;;;;;;25.58;11.93;;;;;;;;;;10311072;28;20228;-76
2023/03/20 12:09:45;;;;;;;21.17;11.75;;;;;;;;;;10308929;28;20225;-79
2023/03/20 12:14:46;;;;;;;23.05;11.65;;;;;;;;;;10295891;28;20990;-80
2023/03/20 12:19:49;;;;;;;25.05;12.82;;;;;;;;;;10261126;28;20463;-75
2023/03/20 12:25:06;;;;;;;20.33;11.98;;;;;;;;;;10303288;28;20327;-77
2023/03/20 12:30:13;;;;;;;27.60;13.25;;;;;;;;;;10322200;28;20216;-78
2023/03/20 12:35:22;;;;;;;22.73;11.70;;;;;;;;;;10324659;28;20216;-80
2023/03/20 12:40:30;;;;;;;25.75;12.80;;;;;;;;;;10290968;28;20313;-79
2023/03/20 12:45:34;;;;;;;25.83;13.48;;;;;;;;;;10294796;28;20901;-83
2023/03/20 12:50:37;;;;;;;29.58;14.50;;;;;;;;;;10309411;28;20219;-80
2023/03/20 12:55:41;;;;;;;21.58;12.90;;;;;;;;;;10313405;28;20846;-83
2023/03/20 13:00:48;;;;;;;23.08;12.20;;;;;;;;;;10326949;28;20694;-80
2023/03/20 13:05:57;;;;;;;22.55;11.60;;;;;;;;;;10305016;28;20669;-79
2023/03/20 13:11:24;;;;;;;17.90;11.85;;;;;;;;;;10317903;28;20645;-79
2023/03/20 13:16:25;;;;;;;17.95;11.32;;;;;;;;;;10313553;28;20293;-80
2023/03/20 13:21:29;;;;;;;18.15;11.05;;;;;;;;;;10306279;28;20274;-80
2023/03/20 13:26:45;;;;;;;18.60;11.25;;;;;;;;;;10313371;28;20666;-80
2023/03/20 13:32:04;;;;;;;14.73;10.43;;;;;;;;;;10297231;28;20304;-80
2023/03/20 13:37:19;;;;;;;13.43;9.10;;;;;;;;;;10295067;28;20223;-79
2023/03/20 13:42:23;;;;;;;11.73;9.32;;;;;;;;;;10317499;28;20275;-79
2023/03/20 13:47:26;;;;;;;13.95;8.77;;;;;;;;;;10313864;28;20228;-79
2023/03/20 13:52:32;;;;;;;13.88;9.63;;;;;;;;;;10311305;28;20228;-80
2023/03/20 13:57:52;;;;;;;10.10;8.30;;;;;;;;;;10309471;28;20329;-81
2023/03/20 14:03:08;;;;;;;13.52;9.27;;;;;;;;;;10305640;28;20224;-79
2023/03/20 14:08:23;;;;;;;12.27;8.98;;;;;;;;;;10286025;28;20561;-82
2023/03/20 14:13:24;;;;;;;12.77;8.85;;;;;;;;;;10327371;28;20216;-79
2023/03/20 14:18:26;;;;;;;8.30;7.32;;;;;;;;;;10302001;28;20220;-84
2023/03/20 14:23:34;;;;;;;9.50;7.20;;;;;;;;;;10309774;28;20251;-81
2023/03/20 14:28:51;;;;;;;9.15;7.55;;;;;;;;;;10333389;28;20224;-80
2023/03/20 14:33:54;;;;;;;7.53;6.90;;;;;;;;;;10308849;28;20219;-79
2023/03/20 14:39:14;;;;;;;7.70;6.80;;;;;;;;;;10314900;28;20213;-81
2023/03/20 14:44:21;;;;;;;9.65;8.05;;;;;;;;;;10310198;28;20470;-82
2023/03/20 14:49:28;;;;;;;10.40;7.85;;;;;;;;;;10335854;28;20221;-80
2023/03/20 14:54:30;;;;;;;8.07;7.28;;;;;;;;;;10319249;28;20221;-80
2023/03/20 14:59:31;;;;;;;11.30;7.78;;;;;;;;;;10311051;28;20208;-80
2023/03/20 15:04:42;;;;;;;10.15;7.50;;;;;;;;;;10321560;28;20234;-80
2023/03/20 15:09:44;;;;;;;8.80;8.00;;;;;;;;;;10315007;28;20229;-80
2023/03/20 15:14:52;;;;;;;7.22;6.55;;;;;;;;;;10335280;28;20232;-80
2023/03/20 15:20:22;;;;;;;7.20;6.43;;;;;;;;;;10290211;28;20386;-80
2023/03/20 15:25:27;;;;;;;9.55;6.53;;;;;;;;;;10287656;28;20225;-80
2023/03/20 15:30:30;;;;;;;12.07;6.30;;;;;;;;;;10327731;28;20219;-80
2023/03/20 15:35:32;;;;;;;7.70;6.28;;;;;;;;;;10292991;28;20238;-81
2023/03/20 15:40:38;;;;;;;8.18;5.97;;;;;;;;;;10310128;28;20221;-79
2023/03/20 15:45:44;;;;;;;8.52;6.82;;;;;;;;;;10323800;28;20657;-78
2023/03/20 15:50:48;;;;;;;8.45;6.45;;;;;;;;;;10317891;28;20649;-79
2023/03/20 15:55:56;;;;;;;7.95;6.85;;;;;;;;;;10313824;28;20290;-80
2023/03/20 16:00:59;;;;;;;7.13;6.53;;;;;;;;;;10308424;28;20232;-78
2023/03/20 16:06:00;;;;;;;13.45;7.45;;;;;;;;;;10301838;28;20220;-81
2023/03/20 16:11:04;;;;;;;10.23;7.93;;;;;;;;;;10299823;28;20223;-78
2023/03/20 16:16:09;;;;;;;8.23;7.43;;;;;;;;;;10324586;28;20450;-79
2023/03/20 16:21:14;;;;;;;7.40;6.78;;;;;;;;;;10301205;28;20245;-78
2023/03/20 16:26:17;;;;;;;9.48;7.00;;;;;;;;;;10317188;28;20336;-78
2023/03/20 16:31:38;;;;;;;8.27;7.05;;;;;;;;;;10322735;28;20312;-77
2023/03/20 16:36:39;;;;;;;8.40;7.00;;;;;;;;;;10299779;28;20608;-77
2023/03/20 16:41:41;;;;;;;8.75;7.38;;;;;;;;;;10313339;28;20843;-78
2023/03/20 16:46:57;;;;;;;8.00;7.25;;;;;;;;;;10311763;28;20215;-78
2023/03/20 16:52:00;;;;;;;7.72;7.03;;;;;;;;;;10323438;28;20223;-78
2023/03/20 16:57:04;;;;;;;9.07;7.65;;;;;;;;;;10316492;28;20234;-80
2023/03/20 17:02:32;;;;;;;12.75;8.00;;;;;;;;;;10292537;28;20289;-78
2023/03/20 17:07:33;;;;;;;7.70;6.90;;;;;;;;;;10313257;28;20309;-78
2023/03/20 17:12:37;;;;;;;11.43;6.97;;;;;;;;;;10308605;28;20243;-78
2023/03/20 17:17:38;;;;;;;9.30;6.47;;;;;;;;;;10308217;28;20293;-76
2023/03/20 17:22:39;;;;;;;13.38;7.20;;;;;;;;;;10319879;28;21185;-77
2023/03/20 17:27:40;;;;;;;8.80;8.10;;;;;;;;;;10303924;28;20212;-78
2023/03/20 17:32:41;;;;;;;8.48;6.97;;;;;;;;;;10316569;28;20216;-78
2023/03/20 17:37:42;;;;;;;11.18;7.50;;;;;;;;;;10299260;28;20207;-79
2023/03/20 17:42:43;;;;;;;13.70;8.88;;;;;;;;;;10295773;28;20274;-77
2023/03/20 17:47:44;;;;;;;11.63;8.88;;;;;;;;;;10318796;28;20273;-79
2023/03/20 17:52:45;;;;;;;10.82;8.57;;;;;;;;;;10309869;28;20220;-77
2023/03/20 17:57:47;;;;;;;10.23;7.22;;;;;;;;;;10315304;28;20227;-79
2023/03/20 18:02:48;;;;;;;11.27;7.43;;;;;;;;;;10319770;28;20310;-80
2023/03/20 18:07:49;;;;;;;11.05;7.78;;;;;;;;;;10327196;28;20305;-79
2023/03/20 18:12:50;;;;;;;10.00;8.38;;;;;;;;;;10312964;28;20780;-81
2023/03/20 18:17:51;;;;;;;9.25;8.25;;;;;;;;;;10292457;28;20217;-79
2023/03/20 18:22:53;;;;;;;9.70;7.95;;;;;;;;;;10323559;28;20220;-79
2023/03/20 18:27:54;;;;;;;10.85;7.50;;;;;;;;;;10327927;28;20387;-79
2023/03/20 18:32:56;;;;;;;12.77;7.97;;;;;;;;;;10317376;28;20227;-80
2023/03/20 18:37:57;;;;;;;10.07;7.60;;;;;;;;;;10335057;28;20239;-82
2023/03/20 18:42:58;;;;;;;13.63;8.15;;;;;;;;;;10347155;28;20235;-82
2023/03/20 18:48:02;;;;;;;10.00;7.45;;;;;;;;;;10309889;28;20228;-80
2023/03/20 18:53:04;;;;;;;10.45;7.97;;;;;;;;;;10321441;28;20554;-80
2023/03/20 18:58:05;;;;;;;9.43;7.70;;;;;;;;;;10337951;28;20224;-81
2023/03/20 19:03:07;;;;;;;15.20;7.75;;;;;;;;;;10333180;28;20227;-81
2023/03/20 19:08:13;;;;;;;11.55;8.63;;;;;;;;;;10297759;28;20927;-81
2023/03/20 19:13:16;;;;;;;12.52;9.38;;;;;;;;;;10348887;28;20287;-81
2023/03/20 19:18:21;;;;;;;12.32;9.07;;;;;;;;;;10329624;28;20216;-82
2023/03/20 19:23:23;;;;;;;10.77;9.55;;;;;;;;;;10328276;28;20304;-83
2023/03/20 19:28:25;;;;;;;11.20;9.10;;;;;;;;;;10344623;28;20223;-83
2023/03/20 19:33:26;;;;;;;10.13;8.75;;;;;;;;;;10338326;28;20228;-80
2023/03/20 19:38:27;;;;;;;12.40;8.40;;;;;;;;;;10301247;28;20624;-81
2023/03/20 19:43:29;;;;;;;9.57;8.40;;;;;;;;;;10321848;28;20443;-81
2023/03/20 19:48:30;;;;;;;12.98;9.18;;;;;;;;;;10315801;28;20220;-81
2023/03/20 19:53:31;;;;;;;10.85;8.80;;;;;;;;;;10311830;28;20223;-80
2023/03/20 19:58:33;;;;;;;16.48;9.98;;;;;;;;;;10316908;28;20958;-82
2023/03/20 20:03:34;;;;;;;12.70;9.80;;;;;;;;;;10322523;28;20648;-81
2023/03/20 20:08:36;;;;;;;11.57;8.75;;;;;;;;;;10323237;28;20254;-82
2023/03/20 20:13:37;;;;;;;12.10;8.90;;;;;;;;;;10318808;28;20739;-80
2023/03/20 20:18:38;;;;;;;14.52;8.30;;;;;;;;;;10305089;28;20680;-82
2023/03/20 20:23:41;;;;;;;9.40;8.32;;;;;;;;;;10316349;28;20224;-81
2023/03/20 20:28:43;;;;;;;10.98;7.95;;;;;;;;;;10334101;28;20268;-82
2023/03/20 20:33:44;;;;;;;13.75;8.63;;;;;;;;;;10308386;28;20307;-81
2023/03/20 20:38:45;;;;;;;10.07;8.95;;;;;;;;;;10306100;28;20226;-82
2023/03/20 20:43:46;;;;;;;11.93;8.48;;;;;;;;;;10340109;28;20231;-81
2023/03/20 20:48:47;;;;;;;10.70;8.13;;;;;;;;;;10332827;28;20219;-81
2023/03/20 20:53:48;;;;;;;13.50;8.38;;;;;;;;;;10335475;28;20288;-81
2023/03/20 20:58:49;;;;;;;10.75;8.60;;;;;;;;;;10330852;28;20213;-82
2023/03/20 21:03:51;;;;;;;11.25;7.90;;;;;;;;;;10324309;28;20235;-78
2023/03/20 21:08:52;;;;;;;9.02;7.28;;;;;;;;;;10303425;28;20223;-79
2023/03/20 21:13:53;;;;;;;11.02;7.93;;;;;;;;;;10314343;28;20935;-79
2023/03/20 21:18:54;;;;;;;10.15;6.97;;;;;;;;;;10325863;28;20231;-81
2023/03/20 21:23:55;;;;;;;10.02;6.32;;;;;;;;;;10312280;28;20243;-79
2023/03/20 21:28:56;;;;;;;10.05;5.80;;;;;;;;;;10332700;28;20235;-79
2023/03/20 21:33:58;;;;;;;6.80;6.00;;;;;;;;;;10308762;28;20267;-81
2023/03/20 21:38:59;;;;;;;6.80;5.55;;;;;;;;;;10300755;28;20414;-79
2023/03/20 21:44:00;;;;;;;9.85;6.15;;;;;;;;;;10325800;28;20220;-79
2023/03/20 21:49:01;;;;;;;13.55;6.22;;;;;;;;;;10306915;28;20338;-80
2023/03/20 21:54:03;;;;;;;6.22;5.60;;;;;;;;;;10323255;28;20232;-78
2023/03/20 21:59:04;;;;;;;7.75;6.15;;;;;;;;;;10314260;28;20220;-79
2023/03/20 22:04:05;;;;;;;10.38;6.15;;;;;;;;;;10295708;28;20800;-78
2023/03/20 22:09:06;;;;;;;11.05;6.32;;;;;;;;;;10323333;28;20701;-78
2023/03/20 22:14:07;;;;;;;8.38;6.03;;;;;;;;;;10318093;28;20291;-79
2023/03/20 22:19:08;;;;;;;9.30;5.97;;;;;;;;;;10323414;28;20216;-80
2023/03/20 22:24:10;;;;;;;11.13;6.50;;;;;;;;;;10317117;28;20608;-78
2023/03/20 22:29:11;;;;;;;10.02;6.30;;;;;;;;;;10306188;28;20220;-79
2023/03/20 22:34:12;;;;;;;8.95;6.55;;;;;;;;;;10321615;28;20232;-79
2023/03/20 22:39:13;;;;;;;10.13;6.05;;;;;;;;;;10321185;28;20669;-79
2023/03/20 22:44:15;;;;;;;9.00;6.53;;;;;;;;;;10338758;28;20777;-79
2023/03/20 22:49:16;;;;;;;9.88;6.80;;;;;;;;;;10324125;28;20286;-79
2023/03/20 22:54:17;;;;;;;9.80;7.18;;;;;;;;;;10313529;28;20274;-80
2023/03/20 22:59:18;;;;;;;13.60;6.72;;;;;;;;;;10332987;28;20212;-80
2023/03/20 23:04:19;;;;;;;13.38;6.50;;;;;;;;;;10329037;28;20224;-79
2023/03/20 23:09:20;;;;;;;8.02;6.40;;;;;;;;;;10299674;28;20220;-79
2023/03/20 23:14:21;;;;;;;9.73;7.30;;;;;;;;;;10326523;28;20735;-78
2023/03/20 23:19:22;;;;;;;8.77;7.15;;;;;;;;;;10319050;28;20212;-79
2023/03/20 23:24:23;;;;;;;10.00;6.85;;;;;;;;;;10301280;28;20803;-80
2023/03/20 23:29:24;;;;;;;11.73;6.95;;;;;;;;;;10314165;28;20233;-79
2023/03/20 23:34:25;;;;;;;14.25;7.47;;;;;;;;;;10314013;28;20290;-79
2023/03/20 23:39:26;;;;;;;9.82;7.50;;;;;;;;;;10309001;28;20729;-79
2023/03/20 23:44:27;;;;;;;10.90;8.35;;;;;;;;;;10333153;28;20617;-79
2023/03/20 23:49:29;;;;;;;12.57;7.47;;;;;;;;;;10302138;28;20355;-79
2023/03/20 23:54:30;;;;;;;10.27;7.20;;;;;;;;;;10308328;28;20226;-79
2023/03/20 23:59:31;;;;;;;7.55;6.32;;;;;;;;;;10309501;28;20216;-79
